sensor_id;sensor_type;location;lat;lon;timestamp;P1;durP1;ratioP1;P2;durP2;ratioP2
17886;SDS011;9069;52.044;7.472;2022-10-26T00:01:06;7.03;;;2.88;;
17886;SDS011;9069;52.044;7.472;2022-10-26T00:03:39;3.58;;;2.50;;
17886;SDS011;9069;52.044;7.472;2022-10-26T00:06:08;5.10;;;2.67;;
17886;SDS011;9069;52.044;7.472;2022-10-26T00:08:37;5.22;;;2.63;;
17886;SDS011;9069;52.044;7.472;2022-10-26T00:11:04;6.25;;;2.83;;
17886;SDS011;9069;52.044;7.472;2022-10-26T00:13:32;6.70;;;2.92;;
17886;SDS011;9069;52.044;7.472;2022-10-26T00:16:00;5.38;;;2.30;;
17886;SDS011;9069;52.044;7.472;2022-10-26T00:18:27;4.13;;;2.25;;
17886;SDS011;9069;52.044;7.472;2022-10-26T00:20:54;6.70;;;2.45;;
17886;SDS011;9069;52.044;7.472;2022-10-26T00:23:20;9.02;;;2.47;;
17886;SDS011;9069;52.044;7.472;2022-10-26T00:25:53;7.15;;;2.40;;
17886;SDS011;9069;52.044;7.472;2022-10-26T00:28:21;6.25;;;2.30;;
17886;SDS011;9069;52.044;7.472;2022-10-26T00:30:47;9.68;;;2.00;;
17886;SDS011;9069;52.044;7.472;2022-10-26T00:33:14;6.82;;;2.17;;
17886;SDS011;9069;52.044;7.472;2022-10-26T00:35:41;5.38;;;2.45;;
17886;SDS011;9069;52.044;7.472;2022-10-26T00:38:11;3.38;;;1.90;;
17886;SDS011;9069;52.044;7.472;2022-10-26T00:40:38;5.80;;;2.05;;
17886;SDS011;9069;52.044;7.472;2022-10-26T00:43:08;7.45;;;2.03;;
17886;SDS011;9069;52.044;7.472;2022-10-26T00:45:41;4.45;;;1.98;;
17886;SDS011;9069;52.044;7.472;2022-10-26T00:48:12;3.78;;;2.42;;
17886;SDS011;9069;52.044;7.472;2022-10-26T00:50:49;6.38;;;2.45;;
17886;SDS011;9069;52.044;7.472;2022-10-26T00:53:19;2.58;;;2.05;;
17886;SDS011;9069;52.044;7.472;2022-10-26T00:55:47;6.60;;;2.15;;
17886;SDS011;9069;52.044;7.472;2022-10-26T00:58:16;4.30;;;2.33;;
17886;SDS011;9069;52.044;7.472;2022-10-26T01:00:43;3.83;;;2.20;;
17886;SDS011;9069;52.044;7.472;2022-10-26T01:03:10;6.25;;;2.42;;
17886;SDS011;9069;52.044;7.472;2022-10-26T01:05:38;9.98;;;2.55;;
17886;SDS011;9069;52.044;7.472;2022-10-26T01:08:07;2.92;;;2.03;;
17886;SDS011;9069;52.044;7.472;2022-10-26T01:10:35;7.65;;;2.45;;
17886;SDS011;9069;52.044;7.472;2022-10-26T01:13:03;4.72;;;2.75;;
17886;SDS011;9069;52.044;7.472;2022-10-26T01:15:36;9.48;;;2.75;;
17886;SDS011;9069;52.044;7.472;2022-10-26T01:18:12;5.80;;;2.60;;
17886;SDS011;9069;52.044;7.472;2022-10-26T01:32:05;10.52;;;2.97;;
17886;SDS011;9069;52.044;7.472;2022-10-26T01:34:41;6.88;;;3.28;;
17886;SDS011;9069;52.044;7.472;2022-10-26T01:37:12;11.30;;;3.75;;
17886;SDS011;9069;52.044;7.472;2022-10-26T01:39:45;4.88;;;3.63;;
17886;SDS011;9069;52.044;7.472;2022-10-26T01:42:17;3.58;;;3.03;;
17886;SDS011;9069;52.044;7.472;2022-10-26T01:44:52;5.90;;;3.47;;
17886;SDS011;9069;52.044;7.472;2022-10-26T01:47:22;6.72;;;3.40;;
17886;SDS011;9069;52.044;7.472;2022-10-26T01:49:52;8.30;;;3.30;;
17886;SDS011;9069;52.044;7.472;2022-10-26T01:52:21;9.10;;;3.13;;
17886;SDS011;9069;52.044;7.472;2022-10-26T01:54:48;6.00;;;3.70;;
17886;SDS011;9069;52.044;7.472;2022-10-26T01:57:16;6.25;;;3.42;;
17886;SDS011;9069;52.044;7.472;2022-10-26T02:10:45;5.88;;;3.15;;
17886;SDS011;9069;52.044;7.472;2022-10-26T02:16:19;4.97;;;3.65;;
17886;SDS011;9069;52.044;7.472;2022-10-26T02:21:24;8.68;;;3.60;;
17886;SDS011;9069;52.044;7.472;2022-10-26T02:23:56;10.57;;;3.95;;
17886;SDS011;9069;52.044;7.472;2022-10-26T02:26:25;6.25;;;4.10;;
17886;SDS011;9069;52.044;7.472;2022-10-26T02:28:55;5.95;;;3.33;;
17886;SDS011;9069;52.044;7.472;2022-10-26T02:31:25;11.48;;;3.58;;
17886;SDS011;9069;52.044;7.472;2022-10-26T02:33:53;10.93;;;3.15;;
17886;SDS011;9069;52.044;7.472;2022-10-26T02:36:26;6.22;;;3.17;;
17886;SDS011;9069;52.044;7.472;2022-10-26T02:39:03;9.32;;;3.35;;
17886;SDS011;9069;52.044;7.472;2022-10-26T02:41:32;5.57;;;3.35;;
17886;SDS011;9069;52.044;7.472;2022-10-26T02:46:59;7.88;;;3.63;;
17886;SDS011;9069;52.044;7.472;2022-10-26T02:49:27;9.30;;;3.58;;
17886;SDS011;9069;52.044;7.472;2022-10-26T02:52:01;5.38;;;3.95;;
17886;SDS011;9069;52.044;7.472;2022-10-26T02:57:36;7.43;;;3.63;;
17886;SDS011;9069;52.044;7.472;2022-10-26T03:00:09;7.03;;;4.57;;
17886;SDS011;9069;52.044;7.472;2022-10-26T03:02:40;12.20;;;3.85;;
17886;SDS011;9069;52.044;7.472;2022-10-26T03:05:14;5.03;;;3.55;;
17886;SDS011;9069;52.044;7.472;2022-10-26T03:07:46;5.82;;;4.20;;
17886;SDS011;9069;52.044;7.472;2022-10-26T03:10:13;5.70;;;3.97;;
17886;SDS011;9069;52.044;7.472;2022-10-26T03:12:40;11.32;;;3.70;;
17886;SDS011;9069;52.044;7.472;2022-10-26T03:15:07;6.18;;;3.60;;
17886;SDS011;9069;52.044;7.472;2022-10-26T03:17:34;6.53;;;3.67;;
17886;SDS011;9069;52.044;7.472;2022-10-26T03:20:00;5.00;;;3.10;;
17886;SDS011;9069;52.044;7.472;2022-10-26T03:22:27;5.97;;;3.42;;
17886;SDS011;9069;52.044;7.472;2022-10-26T03:24:54;5.28;;;2.95;;
17886;SDS011;9069;52.044;7.472;2022-10-26T03:27:20;5.00;;;3.00;;
17886;SDS011;9069;52.044;7.472;2022-10-26T03:29:48;4.75;;;2.95;;
17886;SDS011;9069;52.044;7.472;2022-10-26T03:32:14;8.18;;;2.85;;
17886;SDS011;9069;52.044;7.472;2022-10-26T03:34:41;5.88;;;2.60;;
17886;SDS011;9069;52.044;7.472;2022-10-26T03:37:07;4.78;;;2.45;;
17886;SDS011;9069;52.044;7.472;2022-10-26T03:39:34;4.03;;;2.50;;
17886;SDS011;9069;52.044;7.472;2022-10-26T03:42:01;6.82;;;2.88;;
17886;SDS011;9069;52.044;7.472;2022-10-26T03:44:28;4.90;;;2.80;;
17886;SDS011;9069;52.044;7.472;2022-10-26T03:46:55;3.92;;;2.25;;
17886;SDS011;9069;52.044;7.472;2022-10-26T03:49:21;3.75;;;2.13;;
17886;SDS011;9069;52.044;7.472;2022-10-26T03:51:48;5.57;;;2.63;;
17886;SDS011;9069;52.044;7.472;2022-10-26T03:54:14;5.40;;;2.10;;
17886;SDS011;9069;52.044;7.472;2022-10-26T03:56:41;5.32;;;2.50;;
17886;SDS011;9069;52.044;7.472;2022-10-26T03:59:08;5.07;;;2.70;;
17886;SDS011;9069;52.044;7.472;2022-10-26T04:01:34;3.05;;;2.33;;
17886;SDS011;9069;52.044;7.472;2022-10-26T04:04:01;5.22;;;2.50;;
17886;SDS011;9069;52.044;7.472;2022-10-26T04:06:28;2.97;;;2.45;;
17886;SDS011;9069;52.044;7.472;2022-10-26T04:08:54;5.65;;;2.20;;
17886;SDS011;9069;52.044;7.472;2022-10-26T04:11:27;3.83;;;2.00;;
17886;SDS011;9069;52.044;7.472;2022-10-26T04:13:54;3.63;;;1.90;;
17886;SDS011;9069;52.044;7.472;2022-10-26T04:16:24;7.43;;;2.17;;
17886;SDS011;9069;52.044;7.472;2022-10-26T04:18:58;4.65;;;2.40;;
17886;SDS011;9069;52.044;7.472;2022-10-26T04:21:25;3.25;;;2.20;;
17886;SDS011;9069;52.044;7.472;2022-10-26T04:23:52;5.60;;;2.80;;
17886;SDS011;9069;52.044;7.472;2022-10-26T04:26:19;5.07;;;2.83;;
17886;SDS011;9069;52.044;7.472;2022-10-26T04:28:46;5.80;;;2.88;;
17886;SDS011;9069;52.044;7.472;2022-10-26T04:31:12;5.88;;;3.22;;
17886;SDS011;9069;52.044;7.472;2022-10-26T04:33:39;8.30;;;2.95;;
17886;SDS011;9069;52.044;7.472;2022-10-26T04:36:06;3.10;;;2.40;;
17886;SDS011;9069;52.044;7.472;2022-10-26T04:38:33;5.53;;;2.50;;
17886;SDS011;9069;52.044;7.472;2022-10-26T04:40:59;3.65;;;2.67;;
17886;SDS011;9069;52.044;7.472;2022-10-26T04:43:26;7.78;;;2.25;;
17886;SDS011;9069;52.044;7.472;2022-10-26T04:45:56;5.55;;;2.35;;
17886;SDS011;9069;52.044;7.472;2022-10-26T04:48:23;3.92;;;2.03;;
17886;SDS011;9069;52.044;7.472;2022-10-26T04:50:57;6.50;;;2.40;;
17886;SDS011;9069;52.044;7.472;2022-10-26T04:53:27;4.65;;;2.25;;
17886;SDS011;9069;52.044;7.472;2022-10-26T04:55:57;2.45;;;2.00;;
17886;SDS011;9069;52.044;7.472;2022-10-26T04:58:24;3.90;;;2.25;;
17886;SDS011;9069;52.044;7.472;2022-10-26T05:00:51;3.50;;;3.20;;
17886;SDS011;9069;52.044;7.472;2022-10-26T05:03:18;7.13;;;2.67;;
17886;SDS011;9069;52.044;7.472;2022-10-26T05:05:45;5.97;;;2.42;;
17886;SDS011;9069;52.044;7.472;2022-10-26T05:08:13;3.67;;;2.40;;
17886;SDS011;9069;52.044;7.472;2022-10-26T05:10:40;4.47;;;2.35;;
17886;SDS011;9069;52.044;7.472;2022-10-26T05:13:08;4.80;;;2.20;;
17886;SDS011;9069;52.044;7.472;2022-10-26T05:15:36;7.20;;;2.45;;
17886;SDS011;9069;52.044;7.472;2022-10-26T05:18:03;2.63;;;2.28;;
17886;SDS011;9069;52.044;7.472;2022-10-26T05:20:31;4.50;;;2.45;;
17886;SDS011;9069;52.044;7.472;2022-10-26T05:23:00;3.47;;;2.40;;
17886;SDS011;9069;52.044;7.472;2022-10-26T05:25:28;3.90;;;2.67;;
17886;SDS011;9069;52.044;7.472;2022-10-26T05:28:01;6.88;;;3.72;;
17886;SDS011;9069;52.044;7.472;2022-10-26T05:30:29;4.50;;;2.90;;
17886;SDS011;9069;52.044;7.472;2022-10-26T05:32:57;6.15;;;2.67;;
17886;SDS011;9069;52.044;7.472;2022-10-26T05:35:30;8.68;;;2.75;;
17886;SDS011;9069;52.044;7.472;2022-10-26T05:37:57;7.03;;;2.90;;
17886;SDS011;9069;52.044;7.472;2022-10-26T05:40:24;4.38;;;2.75;;
17886;SDS011;9069;52.044;7.472;2022-10-26T05:42:51;6.22;;;3.20;;
17886;SDS011;9069;52.044;7.472;2022-10-26T05:45:19;4.65;;;2.70;;
17886;SDS011;9069;52.044;7.472;2022-10-26T05:47:46;4.22;;;2.95;;
17886;SDS011;9069;52.044;7.472;2022-10-26T05:50:13;5.75;;;3.17;;
17886;SDS011;9069;52.044;7.472;2022-10-26T05:52:43;7.70;;;2.92;;
17886;SDS011;9069;52.044;7.472;2022-10-26T05:55:12;5.85;;;2.83;;
17886;SDS011;9069;52.044;7.472;2022-10-26T05:57:40;4.20;;;2.92;;
17886;SDS011;9069;52.044;7.472;2022-10-26T06:00:09;8.77;;;3.28;;
17886;SDS011;9069;52.044;7.472;2022-10-26T06:05:54;6.60;;;2.95;;
17886;SDS011;9069;52.044;7.472;2022-10-26T06:08:21;5.60;;;2.78;;
17886;SDS011;9069;52.044;7.472;2022-10-26T06:10:50;8.57;;;3.15;;
17886;SDS011;9069;52.044;7.472;2022-10-26T06:13:17;7.20;;;3.22;;
17886;SDS011;9069;52.044;7.472;2022-10-26T06:24:08;5.28;;;2.90;;
17886;SDS011;9069;52.044;7.472;2022-10-26T06:26:42;5.80;;;2.88;;
17886;SDS011;9069;52.044;7.472;2022-10-26T06:32:14;6.65;;;3.30;;
17886;SDS011;9069;52.044;7.472;2022-10-26T06:34:45;3.33;;;2.80;;
17886;SDS011;9069;52.044;7.472;2022-10-26T06:37:15;6.57;;;2.78;;
17886;SDS011;9069;52.044;7.472;2022-10-26T06:39:44;6.55;;;2.72;;
17886;SDS011;9069;52.044;7.472;2022-10-26T06:42:16;7.63;;;3.03;;
17886;SDS011;9069;52.044;7.472;2022-10-26T06:44:43;5.32;;;2.90;;
17886;SDS011;9069;52.044;7.472;2022-10-26T06:47:22;6.45;;;3.10;;
17886;SDS011;9069;52.044;7.472;2022-10-26T06:49:57;7.28;;;2.95;;
17886;SDS011;9069;52.044;7.472;2022-10-26T06:52:43;7.18;;;3.05;;
17886;SDS011;9069;52.044;7.472;2022-10-26T06:55:17;4.72;;;2.75;;
17886;SDS011;9069;52.044;7.472;2022-10-26T06:57:44;4.38;;;2.80;;
17886;SDS011;9069;52.044;7.472;2022-10-26T07:00:21;6.00;;;3.22;;
17886;SDS011;9069;52.044;7.472;2022-10-26T07:02:50;6.20;;;2.92;;
17886;SDS011;9069;52.044;7.472;2022-10-26T07:05:17;6.50;;;3.22;;
17886;SDS011;9069;52.044;7.472;2022-10-26T07:07:44;4.45;;;2.30;;
17886;SDS011;9069;52.044;7.472;2022-10-26T07:10:13;5.55;;;3.03;;
17886;SDS011;9069;52.044;7.472;2022-10-26T07:12:40;5.00;;;3.30;;
17886;SDS011;9069;52.044;7.472;2022-10-26T07:15:07;6.53;;;2.55;;
17886;SDS011;9069;52.044;7.472;2022-10-26T07:17:42;5.95;;;3.03;;
17886;SDS011;9069;52.044;7.472;2022-10-26T07:20:15;10.23;;;2.53;;
17886;SDS011;9069;52.044;7.472;2022-10-26T07:22:42;6.93;;;3.13;;
17886;SDS011;9069;52.044;7.472;2022-10-26T07:25:09;5.72;;;2.55;;
17886;SDS011;9069;52.044;7.472;2022-10-26T07:27:37;4.60;;;2.72;;
17886;SDS011;9069;52.044;7.472;2022-10-26T07:30:04;2.75;;;2.55;;
17886;SDS011;9069;52.044;7.472;2022-10-26T07:32:31;5.47;;;2.97;;
17886;SDS011;9069;52.044;7.472;2022-10-26T07:34:58;5.57;;;3.13;;
17886;SDS011;9069;52.044;7.472;2022-10-26T07:37:24;8.57;;;2.83;;
17886;SDS011;9069;52.044;7.472;2022-10-26T07:39:51;4.10;;;2.88;;
17886;SDS011;9069;52.044;7.472;2022-10-26T07:42:18;6.75;;;3.00;;
17886;SDS011;9069;52.044;7.472;2022-10-26T07:44:45;4.35;;;2.95;;
17886;SDS011;9069;52.044;7.472;2022-10-26T07:47:12;4.38;;;2.60;;
17886;SDS011;9069;52.044;7.472;2022-10-26T07:49:39;5.88;;;2.47;;
17886;SDS011;9069;52.044;7.472;2022-10-26T07:52:06;6.82;;;2.40;;
17886;SDS011;9069;52.044;7.472;2022-10-26T07:54:32;4.15;;;2.50;;
17886;SDS011;9069;52.044;7.472;2022-10-26T07:56:59;5.55;;;2.92;;
17886;SDS011;9069;52.044;7.472;2022-10-26T07:59:26;7.63;;;3.30;;
17886;SDS011;9069;52.044;7.472;2022-10-26T08:01:52;5.90;;;2.92;;
17886;SDS011;9069;52.044;7.472;2022-10-26T08:04:19;9.93;;;3.13;;
17886;SDS011;9069;52.044;7.472;2022-10-26T08:06:46;7.93;;;3.15;;
17886;SDS011;9069;52.044;7.472;2022-10-26T08:09:13;5.40;;;3.08;;
17886;SDS011;9069;52.044;7.472;2022-10-26T08:11:40;4.97;;;2.80;;
17886;SDS011;9069;52.044;7.472;2022-10-26T08:14:09;6.00;;;2.90;;
17886;SDS011;9069;52.044;7.472;2022-10-26T08:16:36;6.72;;;3.35;;
17886;SDS011;9069;52.044;7.472;2022-10-26T08:19:06;3.83;;;2.50;;
17886;SDS011;9069;52.044;7.472;2022-10-26T08:21:32;8.93;;;3.10;;
17886;SDS011;9069;52.044;7.472;2022-10-26T08:24:05;7.00;;;3.30;;
17886;SDS011;9069;52.044;7.472;2022-10-26T08:26:32;5.78;;;2.80;;
17886;SDS011;9069;52.044;7.472;2022-10-26T08:28:59;10.98;;;2.70;;
17886;SDS011;9069;52.044;7.472;2022-10-26T08:31:25;8.52;;;2.70;;
17886;SDS011;9069;52.044;7.472;2022-10-26T08:33:52;6.78;;;2.90;;
17886;SDS011;9069;52.044;7.472;2022-10-26T08:36:21;6.65;;;2.90;;
17886;SDS011;9069;52.044;7.472;2022-10-26T08:38:50;4.07;;;2.47;;
17886;SDS011;9069;52.044;7.472;2022-10-26T08:41:19;6.53;;;2.08;;
17886;SDS011;9069;52.044;7.472;2022-10-26T08:43:59;6.28;;;2.15;;
17886;SDS011;9069;52.044;7.472;2022-10-26T08:46:34;6.18;;;2.45;;
17886;SDS011;9069;52.044;7.472;2022-10-26T08:49:13;5.00;;;2.35;;
17886;SDS011;9069;52.044;7.472;2022-10-26T08:51:50;6.45;;;2.35;;
17886;SDS011;9069;52.044;7.472;2022-10-26T08:54:36;5.43;;;1.65;;
17886;SDS011;9069;52.044;7.472;2022-10-26T08:57:13;8.73;;;1.55;;
17886;SDS011;9069;52.044;7.472;2022-10-26T08:59:59;3.22;;;1.63;;
17886;SDS011;9069;52.044;7.472;2022-10-26T09:02:29;6.40;;;2.00;;
17886;SDS011;9069;52.044;7.472;2022-10-26T09:04:56;3.92;;;2.00;;
17886;SDS011;9069;52.044;7.472;2022-10-26T09:15:13;5.35;;;1.85;;
17886;SDS011;9069;52.044;7.472;2022-10-26T09:25:50;4.00;;;1.60;;
17886;SDS011;9069;52.044;7.472;2022-10-26T09:28:29;2.50;;;1.40;;
17886;SDS011;9069;52.044;7.472;2022-10-26T09:30:59;3.65;;;1.50;;
17886;SDS011;9069;52.044;7.472;2022-10-26T09:33:27;3.10;;;1.70;;
17886;SDS011;9069;52.044;7.472;2022-10-26T09:36:03;5.05;;;1.50;;
17886;SDS011;9069;52.044;7.472;2022-10-26T09:38:46;5.15;;;1.75;;
17886;SDS011;9069;52.044;7.472;2022-10-26T09:46:34;3.20;;;1.30;;
17886;SDS011;9069;52.044;7.472;2022-10-26T09:49:27;6.00;;;1.50;;
17886;SDS011;9069;52.044;7.472;2022-10-26T09:52:16;2.92;;;1.23;;
17886;SDS011;9069;52.044;7.472;2022-10-26T09:54:43;5.80;;;1.85;;
17886;SDS011;9069;52.044;7.472;2022-10-26T09:57:12;3.63;;;1.35;;
17886;SDS011;9069;52.044;7.472;2022-10-26T09:59:40;6.40;;;1.08;;
17886;SDS011;9069;52.044;7.472;2022-10-26T10:04:59;5.07;;;1.55;;
17886;SDS011;9069;52.044;7.472;2022-10-26T10:07:26;3.97;;;1.40;;
17886;SDS011;9069;52.044;7.472;2022-10-26T10:10:05;4.82;;;1.25;;
17886;SDS011;9069;52.044;7.472;2022-10-26T10:12:33;5.20;;;1.55;;
17886;SDS011;9069;52.044;7.472;2022-10-26T10:14:59;3.25;;;0.90;;
17886;SDS011;9069;52.044;7.472;2022-10-26T10:17:26;6.32;;;1.10;;
17886;SDS011;9069;52.044;7.472;2022-10-26T10:19:53;2.42;;;1.20;;
17886;SDS011;9069;52.044;7.472;2022-10-26T10:22:20;3.85;;;1.75;;
17886;SDS011;9069;52.044;7.472;2022-10-26T10:24:54;2.97;;;1.45;;
17886;SDS011;9069;52.044;7.472;2022-10-26T10:27:25;2.63;;;1.50;;
17886;SDS011;9069;52.044;7.472;2022-10-26T10:29:54;3.70;;;1.30;;
17886;SDS011;9069;52.044;7.472;2022-10-26T10:32:29;1.55;;;1.10;;
17886;SDS011;9069;52.044;7.472;2022-10-26T10:35:04;3.20;;;1.20;;
17886;SDS011;9069;52.044;7.472;2022-10-26T10:37:54;1.67;;;1.05;;
17886;SDS011;9069;52.044;7.472;2022-10-26T10:40:25;3.53;;;1.25;;
17886;SDS011;9069;52.044;7.472;2022-10-26T10:43:00;7.43;;;1.70;;
17886;SDS011;9069;52.044;7.472;2022-10-26T10:45:29;3.45;;;1.10;;
17886;SDS011;9069;52.044;7.472;2022-10-26T10:51:02;5.75;;;1.30;;
17886;SDS011;9069;52.044;7.472;2022-10-26T10:53:43;5.75;;;1.15;;
17886;SDS011;9069;52.044;7.472;2022-10-26T11:01:56;2.13;;;1.60;;
17886;SDS011;9069;52.044;7.472;2022-10-26T11:04:42;3.03;;;1.67;;
17886;SDS011;9069;52.044;7.472;2022-10-26T11:07:13;3.10;;;1.50;;
17886;SDS011;9069;52.044;7.472;2022-10-26T11:09:43;7.25;;;1.40;;
17886;SDS011;9069;52.044;7.472;2022-10-26T11:12:17;2.72;;;1.30;;
17886;SDS011;9069;52.044;7.472;2022-10-26T11:15:02;4.15;;;1.35;;
17886;SDS011;9069;52.044;7.472;2022-10-26T11:17:44;4.32;;;1.20;;
17886;SDS011;9069;52.044;7.472;2022-10-26T11:20:21;4.68;;;1.38;;
17886;SDS011;9069;52.044;7.472;2022-10-26T11:25:29;2.55;;;1.50;;
17886;SDS011;9069;52.044;7.472;2022-10-26T11:28:05;3.78;;;1.30;;
17886;SDS011;9069;52.044;7.472;2022-10-26T11:30:41;5.70;;;1.60;;
17886;SDS011;9069;52.044;7.472;2022-10-26T11:35:46;2.45;;;1.23;;
17886;SDS011;9069;52.044;7.472;2022-10-26T11:38:32;2.67;;;1.50;;
17886;SDS011;9069;52.044;7.472;2022-10-26T11:41:23;2.60;;;1.55;;
17886;SDS011;9069;52.044;7.472;2022-10-26T11:47:08;3.72;;;1.65;;
17886;SDS011;9069;52.044;7.472;2022-10-26T11:49:58;1.95;;;1.20;;
17886;SDS011;9069;52.044;7.472;2022-10-26T11:52:51;5.97;;;1.20;;
17886;SDS011;9069;52.044;7.472;2022-10-26T11:55:24;1.95;;;1.20;;
17886;SDS011;9069;52.044;7.472;2022-10-26T11:57:51;4.00;;;1.38;;
17886;SDS011;9069;52.044;7.472;2022-10-26T12:00:19;6.80;;;1.20;;
17886;SDS011;9069;52.044;7.472;2022-10-26T12:03:05;3.10;;;1.30;;
17886;SDS011;9069;52.044;7.472;2022-10-26T12:11:19;4.72;;;1.20;;
17886;SDS011;9069;52.044;7.472;2022-10-26T12:13:58;3.10;;;1.00;;
17886;SDS011;9069;52.044;7.472;2022-10-26T12:16:51;2.78;;;1.42;;
17886;SDS011;9069;52.044;7.472;2022-10-26T12:19:40;5.20;;;1.40;;
17886;SDS011;9069;52.044;7.472;2022-10-26T12:22:17;9.80;;;1.58;;
17886;SDS011;9069;52.044;7.472;2022-10-26T12:24:45;4.22;;;1.40;;
17886;SDS011;9069;52.044;7.472;2022-10-26T12:27:31;2.95;;;1.33;;
17886;SDS011;9069;52.044;7.472;2022-10-26T12:32:51;2.15;;;1.10;;
17886;SDS011;9069;52.044;7.472;2022-10-26T12:35:36;6.68;;;1.60;;
17886;SDS011;9069;52.044;7.472;2022-10-26T12:41:35;2.90;;;1.30;;
17886;SDS011;9069;52.044;7.472;2022-10-26T12:43:44;3.80;;;1.40;;
17886;SDS011;9069;52.044;7.472;2022-10-26T13:04:39;4.47;;;1.40;;
17886;SDS011;9069;52.044;7.472;2022-10-26T13:07:25;4.38;;;1.60;;
17886;SDS011;9069;52.044;7.472;2022-10-26T13:12:44;6.40;;;1.75;;
17886;SDS011;9069;52.044;7.472;2022-10-26T13:15:23;7.07;;;2.38;;
17886;SDS011;9069;52.044;7.472;2022-10-26T13:17:57;6.22;;;2.10;;
17886;SDS011;9069;52.044;7.472;2022-10-26T13:20:34;3.45;;;1.90;;
17886;SDS011;9069;52.044;7.472;2022-10-26T13:23:12;6.13;;;2.13;;
17886;SDS011;9069;52.044;7.472;2022-10-26T13:25:41;3.88;;;1.98;;
17886;SDS011;9069;52.044;7.472;2022-10-26T13:31:09;3.63;;;1.63;;
17886;SDS011;9069;52.044;7.472;2022-10-26T13:33:42;3.17;;;1.60;;
17886;SDS011;9069;52.044;7.472;2022-10-26T13:36:18;6.20;;;2.20;;
17886;SDS011;9069;52.044;7.472;2022-10-26T13:38:54;6.78;;;1.70;;
17886;SDS011;9069;52.044;7.472;2022-10-26T13:41:29;7.53;;;2.10;;
17886;SDS011;9069;52.044;7.472;2022-10-26T13:43:57;5.15;;;2.10;;
17886;SDS011;9069;52.044;7.472;2022-10-26T13:46:28;5.38;;;1.77;;
17886;SDS011;9069;52.044;7.472;2022-10-26T13:48:58;6.25;;;2.10;;
17886;SDS011;9069;52.044;7.472;2022-10-26T13:51:41;7.97;;;1.80;;
17886;SDS011;9069;52.044;7.472;2022-10-26T13:54:17;6.07;;;1.55;;
17886;SDS011;9069;52.044;7.472;2022-10-26T13:57:12;5.30;;;1.60;;
17886;SDS011;9069;52.044;7.472;2022-10-26T13:59:42;3.30;;;1.60;;
17886;SDS011;9069;52.044;7.472;2022-10-26T14:02:17;3.78;;;1.52;;
17886;SDS011;9069;52.044;7.472;2022-10-26T14:04:50;9.35;;;2.05;;
17886;SDS011;9069;52.044;7.472;2022-10-26T14:07:22;4.55;;;1.48;;
17886;SDS011;9069;52.044;7.472;2022-10-26T14:09:54;3.72;;;1.25;;
17886;SDS011;9069;52.044;7.472;2022-10-26T14:12:23;4.82;;;1.55;;
17886;SDS011;9069;52.044;7.472;2022-10-26T14:14:56;2.83;;;1.83;;
17886;SDS011;9069;52.044;7.472;2022-10-26T14:17:28;5.68;;;2.15;;
17886;SDS011;9069;52.044;7.472;2022-10-26T14:19:55;7.70;;;2.00;;
17886;SDS011;9069;52.044;7.472;2022-10-26T14:22:23;8.80;;;1.70;;
17886;SDS011;9069;52.044;7.472;2022-10-26T14:24:56;3.55;;;1.48;;
17886;SDS011;9069;52.044;7.472;2022-10-26T14:27:25;4.72;;;1.60;;
17886;SDS011;9069;52.044;7.472;2022-10-26T14:29:56;10.38;;;1.40;;
17886;SDS011;9069;52.044;7.472;2022-10-26T14:32:44;3.75;;;1.23;;
17886;SDS011;9069;52.044;7.472;2022-10-26T14:35:13;3.92;;;1.30;;
17886;SDS011;9069;52.044;7.472;2022-10-26T14:37:44;4.10;;;1.52;;
17886;SDS011;9069;52.044;7.472;2022-10-26T14:40:13;4.03;;;1.60;;
17886;SDS011;9069;52.044;7.472;2022-10-26T14:42:43;5.57;;;1.52;;
17886;SDS011;9069;52.044;7.472;2022-10-26T14:47:55;2.20;;;1.27;;
17886;SDS011;9069;52.044;7.472;2022-10-26T14:50:23;1.77;;;1.13;;
17886;SDS011;9069;52.044;7.472;2022-10-26T14:53:00;5.35;;;1.10;;
17886;SDS011;9069;52.044;7.472;2022-10-26T14:55:58;4.55;;;1.10;;
17886;SDS011;9069;52.044;7.472;2022-10-26T14:58:27;5.32;;;1.67;;
17886;SDS011;9069;52.044;7.472;2022-10-26T15:04:20;5.05;;;1.35;;
17886;SDS011;9069;52.044;7.472;2022-10-26T15:07:32;4.38;;;1.70;;
17886;SDS011;9069;52.044;7.472;2022-10-26T15:09:48;4.22;;;1.13;;
17886;SDS011;9069;52.044;7.472;2022-10-26T15:12:35;4.30;;;1.20;;
17886;SDS011;9069;52.044;7.472;2022-10-26T15:17:40;3.30;;;1.10;;
17886;SDS011;9069;52.044;7.472;2022-10-26T15:20:15;5.47;;;1.60;;
17886;SDS011;9069;52.044;7.472;2022-10-26T15:22:51;2.78;;;1.33;;
17886;SDS011;9069;52.044;7.472;2022-10-26T15:25:26;3.28;;;1.38;;
17886;SDS011;9069;52.044;7.472;2022-10-26T15:28:07;3.88;;;1.40;;
17886;SDS011;9069;52.044;7.472;2022-10-26T15:31:05;4.78;;;1.20;;
17886;SDS011;9069;52.044;7.472;2022-10-26T15:33:35;1.95;;;1.10;;
17886;SDS011;9069;52.044;7.472;2022-10-26T15:38:33;2.97;;;1.15;;
17886;SDS011;9069;52.044;7.472;2022-10-26T15:41:00;4.28;;;1.25;;
17886;SDS011;9069;52.044;7.472;2022-10-26T15:43:28;2.97;;;1.00;;
17886;SDS011;9069;52.044;7.472;2022-10-26T15:45:55;4.22;;;1.30;;
17886;SDS011;9069;52.044;7.472;2022-10-26T15:48:26;2.90;;;1.13;;
17886;SDS011;9069;52.044;7.472;2022-10-26T15:50:56;5.03;;;1.17;;
17886;SDS011;9069;52.044;7.472;2022-10-26T15:53:24;1.23;;;0.90;;
17886;SDS011;9069;52.044;7.472;2022-10-26T15:55:57;4.53;;;1.17;;
17886;SDS011;9069;52.044;7.472;2022-10-26T15:58:26;5.85;;;1.33;;
17886;SDS011;9069;52.044;7.472;2022-10-26T16:00:54;2.97;;;1.05;;
17886;SDS011;9069;52.044;7.472;2022-10-26T16:03:22;7.93;;;1.58;;
17886;SDS011;9069;52.044;7.472;2022-10-26T16:05:52;3.70;;;1.20;;
17886;SDS011;9069;52.044;7.472;2022-10-26T16:08:22;2.17;;;1.30;;
17886;SDS011;9069;52.044;7.472;2022-10-26T16:10:49;7.38;;;1.10;;
17886;SDS011;9069;52.044;7.472;2022-10-26T16:13:16;3.83;;;1.17;;
17886;SDS011;9069;52.044;7.472;2022-10-26T16:15:43;1.98;;;1.10;;
17886;SDS011;9069;52.044;7.472;2022-10-26T16:18:10;5.82;;;1.20;;
17886;SDS011;9069;52.044;7.472;2022-10-26T16:20:37;5.28;;;1.30;;
17886;SDS011;9069;52.044;7.472;2022-10-26T16:23:04;6.90;;;1.20;;
17886;SDS011;9069;52.044;7.472;2022-10-26T16:25:34;4.85;;;1.10;;
17886;SDS011;9069;52.044;7.472;2022-10-26T16:28:05;1.70;;;1.50;;
17886;SDS011;9069;52.044;7.472;2022-10-26T16:30:32;3.00;;;1.80;;
17886;SDS011;9069;52.044;7.472;2022-10-26T16:33:02;3.45;;;1.70;;
17886;SDS011;9069;52.044;7.472;2022-10-26T16:35:28;3.33;;;1.60;;
17886;SDS011;9069;52.044;7.472;2022-10-26T16:37:55;2.72;;;1.63;;
17886;SDS011;9069;52.044;7.472;2022-10-26T16:40:21;3.47;;;1.42;;
17886;SDS011;9069;52.044;7.472;2022-10-26T16:42:48;5.93;;;1.33;;
17886;SDS011;9069;52.044;7.472;2022-10-26T16:45:15;3.83;;;1.63;;
17886;SDS011;9069;52.044;7.472;2022-10-26T16:47:42;2.05;;;1.02;;
17886;SDS011;9069;52.044;7.472;2022-10-26T16:50:09;3.63;;;1.33;;
17886;SDS011;9069;52.044;7.472;2022-10-26T16:52:37;4.05;;;1.50;;
17886;SDS011;9069;52.044;7.472;2022-10-26T16:55:05;5.28;;;1.80;;
17886;SDS011;9069;52.044;7.472;2022-10-26T16:57:33;5.05;;;1.70;;
17886;SDS011;9069;52.044;7.472;2022-10-26T17:00:01;2.78;;;1.45;;
17886;SDS011;9069;52.044;7.472;2022-10-26T17:02:29;5.18;;;1.23;;
17886;SDS011;9069;52.044;7.472;2022-10-26T17:04:56;4.07;;;1.23;;
17886;SDS011;9069;52.044;7.472;2022-10-26T17:07:29;2.85;;;1.25;;
17886;SDS011;9069;52.044;7.472;2022-10-26T17:09:56;3.17;;;1.58;;
17886;SDS011;9069;52.044;7.472;2022-10-26T17:12:22;3.10;;;1.52;;
17886;SDS011;9069;52.044;7.472;2022-10-26T17:14:49;4.47;;;1.83;;
17886;SDS011;9069;52.044;7.472;2022-10-26T17:17:16;5.32;;;2.00;;
17886;SDS011;9069;52.044;7.472;2022-10-26T17:19:43;2.30;;;2.00;;
17886;SDS011;9069;52.044;7.472;2022-10-26T17:22:09;3.97;;;1.80;;
17886;SDS011;9069;52.044;7.472;2022-10-26T17:24:36;5.78;;;1.42;;
17886;SDS011;9069;52.044;7.472;2022-10-26T17:27:03;2.03;;;1.40;;
17886;SDS011;9069;52.044;7.472;2022-10-26T17:29:29;4.15;;;1.90;;
17886;SDS011;9069;52.044;7.472;2022-10-26T17:31:56;4.60;;;1.67;;
17886;SDS011;9069;52.044;7.472;2022-10-26T17:34:23;2.92;;;1.85;;
17886;SDS011;9069;52.044;7.472;2022-10-26T17:36:49;3.08;;;1.90;;
17886;SDS011;9069;52.044;7.472;2022-10-26T17:39:16;3.63;;;2.50;;